Time;durP1;ratioP1;P1;durP2;ratioP2;P2;SDS_P1;SDS_P2;PMS_P1;PMS_P2;Temp;Humidity;BMP_temperature;BMP_pressure;BME280_temperature;BME280_humidity;BME280_pressure;Samples;Min_cycle;Max_cycle;Signal;HPM_P1;HPM_P2
2023/10/15 00:00:18;;;;;;;17.03;16.53;;;20.80;91.80;;;;;;5012853;28;20984;-69
2023/10/15 00:02:45;;;;;;;17.87;16.77;;;20.80;91.80;;;;;;5012816;28;20870;-68
2023/10/15 00:05:16;;;;;;;16.87;16.27;;;20.80;91.80;;;;;;5012230;28;20501;-68
2023/10/15 00:07:43;;;;;;;17.40;16.70;;;20.80;91.80;;;;;;5012282;28;20525;-69
2023/10/15 00:10:11;;;;;;;17.70;17.00;;;20.80;91.80;;;;;;5012174;28;20477;-69
2023/10/15 00:12:39;;;;;;;18.30;17.40;;;20.80;91.80;;;;;;5012460;28;20872;-69
2023/10/15 00:15:12;;;;;;;18.40;17.70;;;20.80;91.80;;;;;;5011871;28;20510;-69
2023/10/15 00:17:40;;;;;;;17.90;17.20;;;20.80;91.90;;;;;;5012000;28;20523;-68
2023/10/15 00:20:10;;;;;;;17.87;17.07;;;20.70;91.80;;;;;;5012262;28;21136;-69
2023/10/15 00:22:39;;;;;;;16.53;15.93;;;20.70;91.80;;;;;;5012095;28;20450;-69
2023/10/15 00:25:09;;;;;;;17.30;16.60;;;20.70;91.80;;;;;;5012045;28;20545;-69
2023/10/15 00:27:37;;;;;;;19.53;18.83;;;20.70;91.90;;;;;;5011848;28;20454;-69
2023/10/15 00:30:06;;;;;;;19.70;18.83;;;20.70;91.90;;;;;;5012087;28;20476;-69
2023/10/15 00:32:33;;;;;;;16.90;16.30;;;20.70;91.90;;;;;;5012249;28;20815;-69
2023/10/15 00:35:00;;;;;;;20.10;19.17;;;20.70;91.90;;;;;;5011768;28;20561;-69
2023/10/15 00:37:27;;;;;;;18.00;17.30;;;20.70;91.90;;;;;;5009359;28;20533;-69
2023/10/15 00:39:58;;;;;;;18.73;18.03;;;20.70;91.90;;;;;;5009119;28;20506;-69
2023/10/15 00:42:25;;;;;;;19.00;18.20;;;20.70;91.90;;;;;;5011841;28;20457;-69
2023/10/15 00:44:52;;;;;;;17.53;16.90;;;20.70;91.90;;;;;;5012278;28;20445;-69
2023/10/15 00:47:21;;;;;;;17.47;16.77;;;20.70;91.90;;;;;;5011490;28;20886;-69
2023/10/15 00:49:49;;;;;;;17.60;16.90;;;20.70;91.90;;;;;;5012205;28;20461;-69
2023/10/15 00:52:16;;;;;;;18.10;17.40;;;20.70;91.90;;;;;;5011990;28;20995;-69
2023/10/15 00:54:44;;;;;;;17.87;16.73;;;20.70;91.90;;;;;;5011628;28;20477;-70
2023/10/15 00:57:26;;;;;;;17.30;16.57;;;20.70;91.90;;;;;;5011726;28;20896;-70
2023/10/15 00:59:55;;;;;;;17.67;16.83;;;20.70;91.90;;;;;;5011903;28;20466;-69
2023/10/15 01:02:22;;;;;;;18.77;17.97;;;20.70;91.90;;;;;;5012258;28;20507;-70
2023/10/15 01:04:51;;;;;;;17.40;16.80;;;20.70;91.90;;;;;;5012212;28;20439;-69
2023/10/15 01:07:32;;;;;;;17.60;17.00;;;20.70;91.90;;;;;;5012554;28;20524;-69
2023/10/15 01:10:00;;;;;;;17.80;17.10;;;20.70;92.00;;;;;;5015480;28;20498;-69
2023/10/15 01:12:32;;;;;;;17.97;17.20;;;20.70;92.00;;;;;;5015052;28;20445;-70
2023/10/15 01:15:00;;;;;;;17.90;17.30;;;20.70;92.00;;;;;;5015443;28;20485;-69
2023/10/15 01:17:31;;;;;;;18.00;17.20;;;20.70;92.00;;;;;;5015065;28;20453;-69
2023/10/15 01:20:07;;;;;;;17.60;16.90;;;20.70;92.00;;;;;;5015179;28;20492;-69
2023/10/15 01:22:36;;;;;;;16.87;16.27;;;20.70;92.00;;;;;;5007848;28;20476;-69
2023/10/15 01:25:24;;;;;;;17.07;16.47;;;20.70;92.00;;;;;;5015129;28;20841;-69
2023/10/15 01:27:54;;;;;;;17.30;16.70;;;20.70;92.00;;;;;;5007913;28;20508;-69
2023/10/15 01:30:24;;;;;;;17.83;17.07;;;20.70;92.00;;;;;;5015183;28;20977;-69
2023/10/15 01:32:52;;;;;;;17.23;16.33;;;20.70;92.00;;;;;;5015305;28;20994;-69
2023/10/15 01:35:20;;;;;;;17.17;16.57;;;20.70;92.00;;;;;;5015023;28;20561;-69
2023/10/15 01:37:58;;;;;;;17.53;16.90;;;20.70;92.00;;;;;;5013342;28;21024;-69
2023/10/15 01:40:37;;;;;;;17.83;17.23;;;20.70;92.00;;;;;;5014985;28;20841;-69
2023/10/15 01:43:07;;;;;;;17.43;16.73;;;20.70;92.00;;;;;;5015195;28;20558;-69
2023/10/15 01:45:38;;;;;;;17.57;16.73;;;20.70;92.00;;;;;;5007115;28;20863;-69
2023/10/15 01:48:13;;;;;;;16.23;15.63;;;20.70;92.00;;;;;;5014674;28;20482;-69
2023/10/15 01:50:46;;;;;;;16.97;16.30;;;20.60;92.00;;;;;;5007946;28;20463;-69
2023/10/15 01:53:13;;;;;;;17.13;16.37;;;20.60;92.30;;;;;;5013807;28;20482;-69
2023/10/15 01:55:53;;;;;;;17.07;16.47;;;20.70;92.00;;;;;;5014422;28;20477;-69
2023/10/15 01:58:24;;;;;;;16.33;15.73;;;20.70;92.00;;;;;;5014835;28;20557;-69
2023/10/15 02:00:52;;;;;;;17.00;16.30;;;20.60;92.00;;;;;;5009530;28;20542;-69
2023/10/15 02:03:19;;;;;;;18.03;17.23;;;20.70;92.00;;;;;;5012635;28;20457;-69
2023/10/15 02:05:46;;;;;;;18.37;17.57;;;20.60;92.00;;;;;;5014086;28;20489;-69
2023/10/15 02:08:16;;;;;;;17.67;16.87;;;20.70;92.00;;;;;;5012730;28;20514;-68
2023/10/15 02:10:47;;;;;;;17.57;16.93;;;20.70;92.10;;;;;;5003555;28;20508;-69
2023/10/15 02:13:16;;;;;;;17.83;17.03;;;20.60;92.00;;;;;;5014080;28;20537;-69
2023/10/15 02:15:43;;;;;;;16.70;16.10;;;20.60;92.00;;;;;;5008898;28;20478;-69
2023/10/15 02:18:14;;;;;;;18.17;17.53;;;20.70;92.10;;;;;;5013817;28;20990;-70
2023/10/15 02:20:44;;;;;;;16.93;16.30;;;20.60;92.00;;;;;;5013483;28;20465;-70
2023/10/15 02:23:12;;;;;;;17.73;17.10;;;20.60;92.00;;;;;;5014044;28;20478;-69
2023/10/15 02:25:45;;;;;;;17.63;16.77;;;20.60;92.10;;;;;;5014083;28;20451;-69
2023/10/15 02:28:17;;;;;;;18.07;17.33;;;20.60;92.00;;;;;;5014025;28;20561;-69
2023/10/15 02:30:47;;;;;;;18.60;17.77;;;20.60;92.00;;;;;;5014068;28;20446;-69
2023/10/15 02:33:16;;;;;;;17.10;16.60;;;20.60;92.10;;;;;;5013880;28;20968;-69
2023/10/15 02:35:47;;;;;;;17.50;16.90;;;20.60;92.00;;;;;;5013369;28;20558;-69
2023/10/15 02:38:15;;;;;;;17.80;17.10;;;20.60;92.10;;;;;;5013424;28;20497;-69
2023/10/15 02:41:03;;;;;;;17.07;16.37;;;20.60;92.10;;;;;;5013510;28;20446;-70
2023/10/15 02:43:32;;;;;;;16.80;16.20;;;20.60;92.00;;;;;;5013451;28;20798;-70
2023/10/15 02:46:00;;;;;;;16.37;15.87;;;20.60;92.00;;;;;;5013372;28;20938;-69
2023/10/15 02:48:31;;;;;;;16.70;16.20;;;20.60;92.10;;;;;;5013372;28;20569;-69
2023/10/15 02:51:07;;;;;;;16.93;16.37;;;20.60;92.10;;;;;;5013460;28;20450;-69
2023/10/15 02:53:34;;;;;;;18.03;17.40;;;20.60;92.10;;;;;;5013656;28;20465;-69
2023/10/15 02:56:10;;;;;;;17.50;16.90;;;20.60;92.10;;;;;;5013039;28;20486;-69
2023/10/15 02:58:39;;;;;;;16.27;15.77;;;20.60;92.10;;;;;;5005765;28;20972;-69
2023/10/15 03:01:17;;;;;;;17.60;16.60;;;20.60;92.10;;;;;;5013235;28;20442;-69
2023/10/15 03:03:48;;;;;;;17.27;16.67;;;20.60;92.00;;;;;;5006151;28;20922;-69
2023/10/15 03:06:18;;;;;;;18.57;17.87;;;20.60;92.20;;;;;;5009307;28;20825;-69
2023/10/15 03:08:47;;;;;;;20.10;19.40;;;20.60;92.00;;;;;;5012947;28;20502;-69
2023/10/15 03:11:14;;;;;;;18.53;17.93;;;20.60;92.00;;;;;;5013159;28;20454;-69
2023/10/15 03:13:52;;;;;;;21.43;19.97;;;20.60;92.00;;;;;;5012500;28;20478;-69
2023/10/15 03:16:21;;;;;;;19.30;18.40;;;20.60;92.00;;;;;;5012880;28;20481;-69
2023/10/15 03:18:52;;;;;;;19.27;18.57;;;20.60;92.00;;;;;;5013191;28;20462;-69
2023/10/15 03:21:26;;;;;;;20.20;19.50;;;20.60;92.00;;;;;;5012934;28;20835;-70
2023/10/15 03:23:56;;;;;;;18.80;18.20;;;20.50;91.90;;;;;;5007420;28;20458;-69
2023/10/15 03:26:24;;;;;;;19.10;18.40;;;20.60;92.00;;;;;;5011196;28;20438;-71
2023/10/15 03:28:52;;;;;;;19.60;19.00;;;20.60;92.00;;;;;;5012948;28;20520;-71
2023/10/15 03:31:24;;;;;;;16.13;15.63;;;20.50;92.00;;;;;;5006478;28;20494;-71
2023/10/15 03:34:12;;;;;;;17.67;17.07;;;20.50;92.00;;;;;;5006624;28;20446;-70
2023/10/15 03:36:49;;;;;;;17.00;16.40;;;20.50;92.00;;;;;;5005315;28;21028;-70
2023/10/15 03:39:16;;;;;;;17.23;16.63;;;20.50;92.00;;;;;;5012595;28;20826;-70
2023/10/15 03:41:49;;;;;;;18.07;17.40;;;20.50;92.00;;;;;;5012200;28;20541;-69
2023/10/15 03:44:23;;;;;;;17.70;17.10;;;20.50;92.00;;;;;;5012406;28;20468;-71
2023/10/15 03:46:50;;;;;;;16.13;15.63;;;20.50;92.00;;;;;;5013190;28;20537;-71
2023/10/15 03:49:26;;;;;;;17.10;16.53;;;20.50;92.00;;;;;;5012409;28;20502;-71
2023/10/15 03:51:53;;;;;;;16.90;16.40;;;20.50;92.00;;;;;;5012304;28;20457;-71
2023/10/15 03:54:22;;;;;;;18.17;17.33;;;20.50;92.00;;;;;;5012283;28;20469;-70
2023/10/15 03:56:49;;;;;;;17.10;16.57;;;20.50;92.00;;;;;;5012781;28;20564;-72
2023/10/15 03:59:20;;;;;;;16.97;16.27;;;20.50;92.00;;;;;;5012342;28;20474;-71
2023/10/15 04:01:49;;;;;;;16.80;16.30;;;20.50;92.10;;;;;;5007992;28;20497;-71
2023/10/15 04:04:17;;;;;;;17.10;16.50;;;20.50;92.00;;;;;;5007486;28;20453;-70
2023/10/15 04:06:50;;;;;;;18.37;17.67;;;20.50;92.10;;;;;;5012655;28;20516;-70
2023/10/15 04:09:22;;;;;;;18.03;17.43;;;20.50;92.10;;;;;;5012238;28;20502;-70
2023/10/15 04:11:49;;;;;;;17.30;16.80;;;20.50;92.10;;;;;;5012034;28;21013;-70
2023/10/15 04:14:26;;;;;;;19.73;19.00;;;20.50;92.10;;;;;;5012052;28;20816;-70
2023/10/15 04:16:54;;;;;;;17.83;17.27;;;20.50;92.10;;;;;;5012386;28;20477;-70
2023/10/15 04:19:25;;;;;;;19.07;18.30;;;20.50;92.10;;;;;;5011843;28;20896;-70
2023/10/15 04:21:52;;;;;;;19.30;18.40;;;20.50;92.10;;;;;;5012357;28;20483;-69
2023/10/15 04:24:26;;;;;;;19.10;18.20;;;20.50;92.10;;;;;;5012353;28;20459;-70
2023/10/15 04:26:53;;;;;;;17.70;17.10;;;20.50;92.10;;;;;;5012495;28;20456;-70
2023/10/15 04:29:21;;;;;;;18.10;17.50;;;20.50;92.10;;;;;;5011012;28;20500;-70
2023/10/15 04:32:00;;;;;;;19.13;18.53;;;20.50;92.10;;;;;;5012663;28;20529;-70
2023/10/15 04:34:29;;;;;;;18.53;17.73;;;20.50;92.10;;;;;;5011989;28;20861;-70
2023/10/15 04:36:58;;;;;;;18.53;17.93;;;20.50;92.20;;;;;;5012197;28;20904;-71
2023/10/15 04:39:25;;;;;;;20.00;19.30;;;20.50;92.10;;;;;;5010860;28;20489;-70
2023/10/15 04:41:53;;;;;;;17.67;17.17;;;20.50;92.10;;;;;;5012588;28;20481;-72
2023/10/15 04:44:25;;;;;;;19.30;18.50;;;20.50;92.20;;;;;;5015817;28;20449;-70
2023/10/15 04:46:54;;;;;;;19.57;18.77;;;20.50;92.20;;;;;;5015925;28;20445;-71
2023/10/15 04:49:23;;;;;;;18.33;17.50;;;20.50;92.30;;;;;;5015181;28;20473;-70
2023/10/15 04:51:52;;;;;;;18.57;17.90;;;20.50;92.30;;;;;;5016064;28;20478;-72
2023/10/15 04:54:23;;;;;;;18.40;17.57;;;20.40;92.30;;;;;;5015518;28;20453;-70
2023/10/15 04:56:50;;;;;;;17.77;17.17;;;20.50;92.30;;;;;;5015555;28;20478;-70
2023/10/15 04:59:17;;;;;;;18.63;18.00;;;20.50;92.30;;;;;;5015329;28;20512;-70
2023/10/15 05:01:45;;;;;;;19.90;19.30;;;20.50;92.30;;;;;;5015839;28;20844;-71
2023/10/15 05:04:14;;;;;;;20.50;19.80;;;20.40;92.60;;;;;;5015550;28;20473;-71
2023/10/15 05:06:41;;;;;;;20.77;20.07;;;20.50;92.30;;;;;;5007614;28;20922;-70
2023/10/15 05:09:20;;;;;;;21.27;20.57;;;20.50;92.30;;;;;;5015630;28;20508;-70
2023/10/15 05:11:49;;;;;;;17.90;17.40;;;20.50;92.40;;;;;;5008532;28;20488;-70
2023/10/15 05:14:17;;;;;;;18.73;18.13;;;20.50;92.40;;;;;;5015408;28;20694;-70
2023/10/15 05:16:46;;;;;;;18.73;17.90;;;20.50;92.30;;;;;;5013278;28;20527;-70
2023/10/15 05:19:16;;;;;;;18.30;17.70;;;20.50;92.30;;;;;;5015447;28;20470;-70
2023/10/15 05:21:44;;;;;;;19.33;18.63;;;20.50;92.30;;;;;;5007729;28;20521;-69
2023/10/15 05:24:18;;;;;;;18.20;17.60;;;20.50;92.30;;;;;;5015218;28;20500;-71
2023/10/15 05:26:46;;;;;;;19.17;18.30;;;20.40;92.20;;;;;;5007647;28;20434;-70
2023/10/15 05:29:14;;;;;;;18.67;18.07;;;20.40;92.20;;;;;;5015469;28;20465;-69
2023/10/15 05:31:41;;;;;;;20.20;19.50;;;20.50;92.30;;;;;;5007617;28;20450;-70
2023/10/15 05:34:08;;;;;;;20.03;19.43;;;20.40;92.20;;;;;;5014945;28;20441;-70
2023/10/15 05:36:36;;;;;;;18.97;18.37;;;20.40;92.20;;;;;;5014586;28;21013;-69
2023/10/15 05:39:04;;;;;;;17.93;17.33;;;20.40;92.20;;;;;;5015392;28;20478;-69
2023/10/15 05:41:33;;;;;;;18.07;17.43;;;20.40;92.20;;;;;;5014690;28;20478;-69
2023/10/15 05:44:00;;;;;;;16.93;16.43;;;20.40;92.20;;;;;;5014624;28;20540;-69
2023/10/15 05:46:28;;;;;;;18.33;17.63;;;20.40;92.20;;;;;;5014488;28;20532;-69
2023/10/15 05:48:55;;;;;;;18.63;18.03;;;20.40;92.20;;;;;;5014698;28;20987;-69
2023/10/15 05:51:22;;;;;;;18.00;17.40;;;20.40;92.20;;;;;;5014265;28;20970;-68
2023/10/15 05:53:49;;;;;;;17.87;17.27;;;20.40;92.20;;;;;;5014454;28;20470;-69
2023/10/15 05:56:16;;;;;;;18.00;17.40;;;20.40;92.20;;;;;;5014439;28;20506;-69
2023/10/15 05:58:44;;;;;;;18.80;18.00;;;20.40;92.20;;;;;;5014447;28;20524;-69
2023/10/15 06:01:11;;;;;;;18.63;18.03;;;20.40;92.20;;;;;;5014178;28;20492;-69
2023/10/15 06:03:38;;;;;;;19.43;18.67;;;20.40;92.20;;;;;;5014051;28;20478;-69
2023/10/15 06:06:06;;;;;;;21.00;20.40;;;20.40;92.20;;;;;;5014234;28;20439;-69
2023/10/15 06:08:33;;;;;;;18.03;17.30;;;20.40;92.20;;;;;;5014046;28;20867;-69
2023/10/15 06:11:00;;;;;;;18.57;18.07;;;20.40;92.20;;;;;;5014092;28;20476;-69
2023/10/15 06:13:27;;;;;;;17.27;16.67;;;20.40;92.20;;;;;;5013986;28;20450;-69
2023/10/15 06:15:57;;;;;;;17.93;17.13;;;20.40;92.20;;;;;;5013844;28;20482;-70
2023/10/15 06:18:24;;;;;;;17.30;16.80;;;20.40;92.20;;;;;;5010318;28;20474;-69
2023/10/15 06:20:51;;;;;;;16.70;16.20;;;20.50;92.50;;;;;;5013584;28;20482;-70
2023/10/15 06:23:19;;;;;;;18.13;17.53;;;20.50;92.40;;;;;;5014185;28;20474;-69
2023/10/15 06:25:45;;;;;;;18.40;17.80;;;20.50;92.50;;;;;;5013827;28;20474;-68
2023/10/15 06:28:14;;;;;;;18.83;18.00;;;20.50;92.60;;;;;;5011102;28;20522;-71
2023/10/15 06:30:42;;;;;;;18.97;18.27;;;20.50;92.80;;;;;;5014101;28;20442;-72
2023/10/15 06:33:13;;;;;;;19.07;18.47;;;20.50;92.70;;;;;;5014122;28;20512;-70
2023/10/15 06:35:41;;;;;;;18.20;17.50;;;20.50;92.70;;;;;;5013774;28;20450;-70
2023/10/15 06:38:08;;;;;;;17.93;17.30;;;20.50;92.70;;;;;;5011757;28;20474;-69
2023/10/15 06:40:38;;;;;;;17.80;17.30;;;20.50;92.80;;;;;;5012430;28;20519;-69
2023/10/15 06:43:05;;;;;;;19.27;18.67;;;20.50;92.90;;;;;;5014117;28;20446;-69
2023/10/15 06:45:32;;;;;;;18.30;17.80;;;20.50;93.00;;;;;;5013507;28;20474;-68
2023/10/15 06:48:00;;;;;;;18.40;17.70;;;20.60;93.00;;;;;;5012917;28;20521;-69
2023/10/15 06:50:28;;;;;;;18.07;17.53;;;20.60;93.00;;;;;;5011657;28;20454;-69
2023/10/15 06:52:56;;;;;;;18.10;17.50;;;20.60;93.00;;;;;;5013779;28;20438;-69
2023/10/15 06:55:23;;;;;;;18.57;18.07;;;20.60;93.00;;;;;;5013211;28;20865;-69
2023/10/15 06:57:50;;;;;;;18.27;17.47;;;20.60;93.00;;;;;;5013427;28;20517;-69
2023/10/15 07:00:22;;;;;;;19.37;18.70;;;20.60;93.00;;;;;;5010865;28;20500;-69
2023/10/15 07:02:50;;;;;;;18.17;17.60;;;20.60;93.00;;;;;;5006044;28;21095;-68
2023/10/15 07:05:18;;;;;;;18.67;18.07;;;20.60;93.00;;;;;;5009109;28;20461;-70
2023/10/15 07:07:47;;;;;;;18.93;18.30;;;20.60;93.10;;;;;;5005150;28;20434;-70
2023/10/15 07:10:15;;;;;;;19.70;19.10;;;20.70;93.10;;;;;;5010726;28;20477;-70
2023/10/15 07:12:46;;;;;;;20.30;19.57;;;20.70;93.10;;;;;;5013343;28;20773;-69
2023/10/15 07:15:14;;;;;;;20.17;19.57;;;20.60;93.00;;;;;;5013025;28;20525;-69
2023/10/15 07:17:42;;;;;;;20.13;19.43;;;20.60;93.10;;;;;;5013216;28;20478;-69
2023/10/15 07:20:15;;;;;;;18.83;18.23;;;20.70;93.10;;;;;;5010371;28;20487;-71
2023/10/15 07:22:48;;;;;;;19.70;19.00;;;20.70;93.10;;;;;;5012924;28;20442;-70
2023/10/15 07:25:16;;;;;;;19.70;18.90;;;20.70;93.10;;;;;;5012785;28;20838;-69
2023/10/15 07:27:45;;;;;;;19.60;19.00;;;20.70;93.10;;;;;;5012635;28;20462;-70
2023/10/15 07:30:13;;;;;;;19.47;18.77;;;20.70;93.10;;;;;;5012695;28;20446;-70
2023/10/15 07:32:41;;;;;;;20.60;19.27;;;20.60;93.10;;;;;;5012679;28;20477;-69
2023/10/15 07:35:11;;;;;;;19.43;18.80;;;20.70;93.10;;;;;;5012746;28;20446;-71
2023/10/15 07:37:40;;;;;;;20.03;19.43;;;20.70;93.20;;;;;;5012205;28;20486;-70
2023/10/15 07:40:16;;;;;;;19.27;18.67;;;20.60;93.10;;;;;;5012794;28;20474;-70
2023/10/15 07:42:44;;;;;;;18.43;17.83;;;20.70;93.20;;;;;;5012687;28;20996;-71
2023/10/15 07:45:11;;;;;;;20.17;19.57;;;20.70;93.20;;;;;;5012414;28;20549;-70
2023/10/15 07:47:38;;;;;;;18.93;18.40;;;20.70;93.20;;;;;;5012451;28;20481;-71
2023/10/15 07:50:08;;;;;;;19.73;19.13;;;20.70;93.30;;;;;;5012395;28;20501;-70
2023/10/15 07:52:35;;;;;;;19.17;18.47;;;20.70;93.30;;;;;;5012646;28;20477;-72
2023/10/15 07:55:02;;;;;;;18.33;17.83;;;20.70;93.30;;;;;;5012524;28;20454;-71
2023/10/15 07:57:31;;;;;;;17.57;17.07;;;20.70;93.20;;;;;;5012158;28;20531;-69
2023/10/15 07:59:58;;;;;;;18.80;18.20;;;20.70;93.30;;;;;;5012849;28;20945;-70
2023/10/15 08:02:26;;;;;;;19.33;18.63;;;20.70;93.30;;;;;;5004726;28;20969;-68
2023/10/15 08:04:55;;;;;;;19.37;18.77;;;20.70;93.20;;;;;;5012680;28;20485;-68
2023/10/15 08:07:22;;;;;;;19.87;19.27;;;20.70;93.20;;;;;;5012503;28;20457;-70
2023/10/15 08:09:51;;;;;;;19.90;19.30;;;20.70;93.20;;;;;;5004528;28;20875;-70
2023/10/15 08:12:18;;;;;;;21.47;20.77;;;20.70;93.20;;;;;;5012295;28;20858;-71
2023/10/15 08:14:46;;;;;;;20.23;19.63;;;20.70;93.20;;;;;;5012056;28;20442;-69
2023/10/15 08:17:14;;;;;;;19.33;18.73;;;20.70;93.20;;;;;;5013399;28;20520;-69
2023/10/15 08:19:41;;;;;;;19.50;18.90;;;20.70;93.20;;;;;;5016444;28;20509;-69
2023/10/15 08:22:08;;;;;;;19.37;18.77;;;20.70;93.10;;;;;;5010115;28;20478;-73
2023/10/15 08:24:38;;;;;;;19.90;19.30;;;20.70;93.10;;;;;;5016197;28;20478;-69
2023/10/15 08:27:06;;;;;;;19.37;18.77;;;20.70;93.10;;;;;;5016401;28;20487;-71
2023/10/15 08:29:32;;;;;;;19.90;19.30;;;20.70;93.20;;;;;;5015908;28;20480;-71
2023/10/15 08:32:02;;;;;;;19.40;18.80;;;20.70;93.30;;;;;;5016397;28;20482;-69
2023/10/15 08:34:29;;;;;;;19.70;19.10;;;20.70;93.30;;;;;;5015909;28;20517;-67
2023/10/15 08:36:56;;;;;;;19.73;19.07;;;20.70;93.40;;;;;;5016153;28;20513;-67
2023/10/15 08:39:23;;;;;;;20.20;19.50;;;20.70;93.30;;;;;;5014302;28;20557;-76
2023/10/15 08:41:54;;;;;;;18.27;17.70;;;20.70;93.00;;;;;;5009272;28;20442;-77
2023/10/15 08:44:21;;;;;;;19.17;18.57;;;20.90;93.50;;;;;;5015273;28;20508;-70
2023/10/15 08:46:51;;;;;;;18.40;17.90;;;20.90;92.80;;;;;;5015263;28;20462;-66
2023/10/15 08:49:22;;;;;;;18.77;17.97;;;20.90;92.80;;;;;;5015597;28;20857;-65
2023/10/15 08:51:50;;;;;;;19.37;18.57;;;21.00;93.40;;;;;;5007286;28;20473;-65
2023/10/15 08:54:25;;;;;;;18.33;17.73;;;21.00;93.40;;;;;;5015132;28;20576;-64
2023/10/15 08:56:54;;;;;;;18.20;17.60;;;21.10;93.70;;;;;;5007347;28;20532;-64
2023/10/15 08:59:22;;;;;;;18.50;18.00;;;21.20;93.70;;;;;;5015062;28;20984;-64
2023/10/15 09:01:51;;;;;;;19.50;18.80;;;21.20;93.70;;;;;;5004306;28;20898;-63
2023/10/15 09:04:20;;;;;;;18.63;18.03;;;21.30;93.70;;;;;;5014786;28;20491;-64
2023/10/15 09:06:48;;;;;;;19.00;18.40;;;21.30;93.70;;;;;;5014882;28;20434;-64
2023/10/15 09:09:15;;;;;;;19.80;19.10;;;21.30;93.60;;;;;;5014720;28;20461;-64
2023/10/15 09:11:43;;;;;;;19.40;18.80;;;21.40;93.60;;;;;;5014573;28;20470;-64
2023/10/15 09:14:13;;;;;;;19.13;18.60;;;21.40;93.60;;;;;;5014348;28;20537;-64
2023/10/15 09:16:46;;;;;;;20.00;19.37;;;21.50;93.50;;;;;;5014651;28;20511;-64
2023/10/15 09:19:14;;;;;;;19.13;18.53;;;21.50;93.50;;;;;;5014634;28;20462;-64
2023/10/15 09:21:45;;;;;;;19.10;18.43;;;21.50;93.30;;;;;;5014382;28;20564;-64
2023/10/15 09:24:14;;;;;;;19.10;18.50;;;21.60;93.30;;;;;;5014460;28;20446;-64
2023/10/15 09:26:41;;;;;;;20.20;19.50;;;21.60;93.20;;;;;;5014156;28;20492;-64
2023/10/15 09:29:20;;;;;;;19.77;19.10;;;21.60;93.10;;;;;;5013821;28;20496;-64
2023/10/15 09:31:47;;;;;;;21.87;20.83;;;21.60;93.10;;;;;;5014257;28;20512;-65
2023/10/15 09:34:14;;;;;;;21.33;20.53;;;21.70;93.00;;;;;;5014055;28;20450;-64
2023/10/15 09:36:42;;;;;;;22.70;21.90;;;21.70;93.00;;;;;;5014242;28;20470;-68
2023/10/15 09:39:12;;;;;;;22.23;21.30;;;21.80;92.90;;;;;;5014131;28;21035;-69
